createdAt,value
2018-08-10T00:01:59.345Z,2.20
2018-08-10T00:04:29.520Z,2.00
2018-08-10T00:06:59.682Z,1.80
2018-08-10T00:09:29.928Z,1.93
2018-08-10T00:12:00.048Z,1.90
2018-08-10T00:14:30.345Z,1.90
2018-08-10T00:17:00.464Z,1.50
2018-08-10T00:19:30.509Z,1.80
2018-08-10T00:22:00.624Z,1.53
2018-08-10T00:24:30.722Z,1.70
2018-08-10T00:27:00.850Z,1.60
2018-08-10T00:29:31.042Z,1.93
2018-08-10T00:32:01.286Z,2.27
2018-08-10T00:34:31.368Z,2.17
2018-08-10T00:37:01.623Z,1.53
2018-08-10T00:39:32.315Z,1.80
2018-08-10T00:42:02.524Z,1.57
2018-08-10T00:44:32.621Z,1.90
2018-08-10T00:47:02.743Z,1.60
2018-08-10T00:49:32.845Z,1.50
2018-08-10T00:52:03.012Z,1.73
2018-08-10T00:54:33.375Z,1.53
2018-08-10T00:57:03.615Z,1.80
2018-08-10T00:59:34.327Z,1.50
2018-08-10T01:02:04.800Z,1.80
2018-08-10T01:04:35.859Z,1.47
2018-08-10T01:07:07.351Z,1.90
2018-08-10T01:09:37.487Z,1.60
2018-08-10T01:12:07.731Z,1.50
2018-08-10T01:14:37.927Z,1.60
2018-08-10T01:17:08.044Z,1.50
2018-08-10T01:19:38.112Z,1.53
2018-08-10T01:22:08.404Z,1.50
2018-08-10T01:24:38.507Z,1.40
2018-08-10T01:27:14.002Z,1.60
2018-08-10T01:29:44.757Z,1.67
2018-08-10T01:32:14.943Z,1.50
2018-08-10T01:34:45.432Z,1.33
2018-08-10T01:37:15.577Z,1.50
2018-08-10T01:39:46.092Z,1.33
2018-08-10T01:42:16.228Z,1.40
2018-08-10T01:44:46.267Z,1.30
2018-08-10T01:47:16.491Z,1.50
2018-08-10T01:49:46.555Z,1.53
2018-08-10T01:52:16.736Z,1.60
2018-08-10T01:54:47.341Z,1.47
2018-08-10T01:57:17.411Z,1.60
2018-08-10T01:59:47.977Z,1.50
2018-08-10T02:02:18.417Z,1.50
2018-08-10T02:04:48.549Z,1.40
2018-08-10T02:07:18.661Z,1.50
2018-08-10T02:09:48.847Z,1.53
2018-08-10T02:12:19.390Z,1.30
2018-08-10T02:14:49.585Z,1.30
2018-08-10T02:17:19.713Z,1.37
2018-08-10T02:19:49.869Z,1.30
2018-08-10T02:22:20.017Z,1.20
2018-08-10T02:24:57.063Z,1.40
2018-08-10T02:27:27.296Z,1.33
2018-08-10T02:29:57.399Z,1.40
2018-08-10T02:32:27.557Z,1.20
2018-08-10T02:34:57.603Z,1.40
2018-08-10T02:37:27.744Z,1.27
2018-08-10T02:39:57.757Z,1.30
2018-08-10T02:42:27.821Z,1.23
2018-08-10T02:44:57.905Z,1.57
2018-08-10T02:47:28.083Z,1.40
2018-08-10T02:49:58.198Z,1.10
2018-08-10T02:52:28.361Z,0.93
2018-08-10T02:54:58.534Z,1.23
2018-08-10T02:57:28.607Z,1.00
2018-08-10T02:59:58.659Z,1.27
2018-08-10T03:02:29.220Z,1.00
2018-08-10T03:04:59.647Z,1.27
2018-08-10T03:07:29.800Z,1.10
2018-08-10T03:10:00.039Z,1.10
2018-08-10T03:12:30.170Z,0.80
2018-08-10T03:15:00.344Z,0.80
2018-08-10T03:17:30.436Z,1.10
2018-08-10T03:20:00.558Z,1.10
2018-08-10T03:22:30.740Z,1.13
2018-08-10T03:25:00.952Z,1.40
2018-08-10T03:27:31.124Z,1.27
2018-08-10T03:30:01.453Z,1.20
2018-08-10T03:32:31.551Z,1.13
2018-08-10T03:35:01.708Z,1.20
2018-08-10T03:37:31.840Z,1.10
2018-08-10T03:40:01.914Z,0.97
2018-08-10T03:42:31.977Z,1.20
2018-08-10T03:45:02.131Z,1.00
2018-08-10T03:47:32.293Z,1.40
2018-08-10T03:50:02.432Z,1.20
2018-08-10T03:52:32.547Z,1.80
2018-08-10T03:55:02.695Z,1.40
2018-08-10T03:57:33.265Z,1.50
2018-08-10T04:00:03.377Z,1.27
2018-08-10T04:02:33.633Z,1.30
2018-08-10T04:05:03.773Z,1.13
2018-08-10T04:07:34.865Z,1.27
2018-08-10T04:10:06.591Z,1.30
2018-08-10T04:12:37.461Z,1.00
2018-08-10T04:15:11.153Z,1.00
2018-08-10T04:17:41.474Z,0.90
2018-08-10T04:20:11.853Z,1.03
2018-08-10T04:22:41.917Z,1.00
2018-08-10T04:25:11.991Z,0.90
2018-08-10T04:27:42.039Z,1.10
2018-08-10T04:30:12.577Z,0.93
2018-08-10T04:32:42.756Z,0.93
2018-08-10T04:35:12.810Z,1.10
2018-08-10T04:37:42.930Z,1.10
2018-08-10T04:40:13.380Z,1.10
2018-08-10T04:42:43.587Z,1.43
2018-08-10T04:45:13.673Z,1.00
2018-08-10T04:47:47.656Z,1.10
2018-08-10T04:50:18.707Z,1.00
2018-08-10T04:52:48.912Z,1.13
2018-08-10T04:55:18.978Z,1.13
2018-08-10T04:57:49.211Z,1.00
2018-08-10T05:00:19.399Z,0.90
2018-08-10T05:02:50.467Z,0.80
2018-08-10T05:05:20.619Z,0.90
2018-08-10T05:07:53.721Z,0.93
2018-08-10T05:10:23.853Z,0.90
2018-08-10T05:12:53.984Z,0.90
2018-08-10T05:15:24.163Z,1.07
2018-08-10T05:17:54.307Z,0.90
2018-08-10T05:20:24.395Z,0.70
2018-08-10T05:22:54.500Z,0.87
2018-08-10T05:25:24.675Z,0.93
2018-08-10T05:27:54.771Z,0.80
2018-08-10T05:30:24.931Z,0.77
2018-08-10T05:32:55.045Z,0.90
2018-08-10T05:35:25.153Z,0.80
2018-08-10T05:37:55.509Z,0.60
2018-08-10T05:40:25.611Z,0.83
2018-08-10T05:42:55.809Z,0.90
2018-08-10T05:45:25.861Z,0.97
2018-08-10T05:47:55.971Z,0.80
2018-08-10T05:50:26.066Z,0.90
2018-08-10T05:52:56.142Z,0.60
2018-08-10T05:55:26.219Z,0.63
2018-08-10T05:57:56.467Z,0.93
2018-08-10T06:00:26.609Z,0.60
2018-08-10T06:02:56.806Z,0.60
2018-08-10T06:05:26.851Z,0.93
2018-08-10T06:07:57.010Z,0.50
2018-08-10T06:10:27.082Z,0.70
2018-08-10T06:12:57.265Z,0.80
2018-08-10T06:15:27.305Z,0.70
2018-08-10T06:17:57.439Z,0.73
2018-08-10T06:20:28.044Z,0.80
2018-08-10T06:22:58.785Z,0.67
2018-08-10T06:25:28.925Z,0.70
2018-08-10T06:27:59.095Z,0.60
2018-08-10T06:30:29.160Z,0.60
2018-08-10T06:32:59.348Z,0.60
2018-08-10T06:35:29.580Z,0.80
2018-08-10T06:37:59.689Z,0.87
2018-08-10T06:40:30.123Z,0.50
2018-08-10T06:43:00.302Z,0.80
2018-08-10T06:45:30.869Z,0.80
2018-08-10T06:48:00.924Z,0.63
2018-08-10T06:50:31.021Z,0.80
2018-08-10T06:53:01.169Z,0.80
2018-08-10T06:55:31.342Z,0.80
2018-08-10T06:58:01.448Z,0.60
2018-08-10T07:00:31.620Z,0.70
2018-08-10T07:03:01.779Z,0.80
2018-08-10T07:05:31.916Z,0.60
2018-08-10T07:08:02.196Z,0.63
2018-08-10T07:10:32.450Z,0.60
2018-08-10T07:13:02.671Z,0.83
2018-08-10T07:15:32.810Z,0.70
2018-08-10T07:18:03.006Z,0.60
2018-08-10T07:20:33.254Z,1.10
2018-08-10T07:23:03.316Z,0.73
2018-08-10T07:25:33.488Z,0.80
2018-08-10T07:28:04.848Z,0.80
2018-08-10T07:30:35.011Z,1.17
2018-08-10T07:33:05.689Z,0.80
2018-08-10T07:35:35.866Z,0.90
2018-08-10T07:38:06.110Z,0.50
2018-08-10T07:40:36.199Z,0.80
2018-08-10T07:43:06.358Z,0.60
2018-08-10T07:45:36.458Z,0.57
2018-08-10T07:48:06.676Z,0.63
2018-08-10T07:50:36.856Z,0.70
2018-08-10T07:53:07.601Z,0.80
2018-08-10T07:55:37.667Z,0.70
2018-08-10T07:58:07.782Z,0.70
2018-08-10T08:00:37.913Z,0.60
2018-08-10T08:03:08.200Z,0.60
2018-08-10T08:05:38.196Z,0.73
2018-08-10T08:08:09.488Z,0.60
2018-08-10T08:10:39.638Z,0.77
2018-08-10T08:13:09.721Z,0.73
2018-08-10T08:15:39.872Z,0.63
2018-08-10T08:18:10.101Z,1.00
2018-08-10T08:21:18.677Z,0.70
2018-08-10T08:23:50.660Z,0.60
2018-08-10T08:26:20.843Z,0.70
2018-08-10T08:28:51.064Z,0.70
2018-08-10T08:31:21.396Z,0.77
2018-08-10T08:34:04.583Z,0.70
2018-08-10T08:36:34.822Z,0.60
2018-08-10T08:39:30.790Z,0.90
2018-08-10T08:42:00.876Z,0.40
2018-08-10T08:44:53.004Z,0.87
2018-08-10T08:47:23.104Z,0.60
2018-08-10T08:50:05.709Z,0.77
2018-08-10T08:52:35.940Z,0.70
2018-08-10T08:55:41.396Z,0.50
2018-08-10T08:58:11.472Z,0.80
2018-08-10T09:00:41.796Z,1.10
2018-08-10T09:03:29.301Z,0.80
2018-08-10T09:06:00.070Z,0.87
2018-08-10T09:08:30.186Z,0.80
2018-08-10T09:11:01.904Z,0.70
2018-08-10T09:14:54.755Z,0.77
2018-08-10T09:17:24.983Z,0.90
2018-08-10T09:20:07.519Z,0.70
2018-08-10T09:22:37.883Z,0.90
2018-08-10T09:25:10.477Z,0.90
2018-08-10T09:27:40.699Z,0.80
2018-08-10T09:30:13.418Z,0.93
2018-08-10T09:32:43.939Z,0.70
2018-08-10T09:35:14.573Z,0.50
2018-08-10T09:37:44.823Z,0.67
2018-08-10T09:40:17.515Z,0.80
2018-08-10T09:42:47.936Z,0.97
2018-08-10T09:45:19.385Z,0.90
2018-08-10T09:47:50.300Z,0.70
2018-08-10T09:50:20.819Z,0.70
2018-08-10T09:53:04.051Z,0.60
2018-08-10T09:55:40.335Z,0.60
2018-08-10T09:58:19.726Z,0.60
2018-08-10T10:00:54.780Z,0.80
2018-08-10T10:03:25.842Z,0.53
2018-08-10T10:05:58.517Z,0.67
2018-08-10T10:08:28.621Z,0.60
2018-08-10T10:10:58.995Z,0.97
2018-08-10T10:13:29.171Z,0.63
2018-08-10T10:15:59.337Z,0.60
2018-08-10T10:18:29.355Z,0.60
2018-08-10T10:20:59.470Z,1.50
2018-08-10T10:23:29.510Z,2.43
2018-08-10T10:25:59.703Z,1.20
2018-08-10T10:28:29.750Z,1.00
2018-08-10T10:31:00.765Z,1.10
2018-08-10T10:33:31.193Z,0.87
2018-08-10T10:36:01.294Z,0.80
2018-08-10T10:38:31.349Z,0.80
2018-08-10T10:41:01.750Z,0.97
2018-08-10T10:43:32.026Z,1.30
2018-08-10T10:46:02.192Z,1.00
2018-08-10T10:48:32.417Z,0.80
2018-08-10T10:51:02.450Z,0.60
2018-08-10T10:53:32.532Z,0.47
2018-08-10T10:56:03.039Z,0.60
2018-08-10T10:58:33.625Z,0.80
2018-08-10T11:01:04.112Z,0.83
2018-08-10T11:03:34.506Z,0.67
2018-08-10T11:06:04.670Z,0.70
2018-08-10T11:08:34.940Z,0.60
2018-08-10T11:11:05.080Z,0.83
2018-08-10T11:13:35.278Z,0.73
2018-08-10T11:16:05.466Z,0.87
2018-08-10T11:18:36.303Z,1.17
2018-08-10T11:21:06.652Z,0.57
2018-08-10T11:23:36.876Z,1.00
2018-08-10T11:26:07.232Z,2.00
2018-08-10T11:28:37.327Z,1.37
2018-08-10T11:31:07.626Z,0.97
2018-08-10T11:33:38.043Z,0.87
2018-08-10T11:36:08.369Z,0.57
2018-08-10T11:38:39.076Z,0.77
2018-08-10T11:41:09.381Z,0.77
2018-08-10T11:43:39.512Z,0.73
2018-08-10T11:46:09.657Z,0.60
2018-08-10T11:48:39.745Z,0.50
2018-08-10T11:51:09.944Z,0.53
2018-08-10T11:53:40.204Z,0.70
2018-08-10T11:56:10.276Z,0.67
2018-08-10T11:58:40.471Z,0.60
2018-08-10T12:01:10.548Z,0.50
2018-08-10T12:03:40.817Z,0.50
2018-08-10T12:06:11.244Z,0.50
2018-08-10T12:08:41.271Z,0.63
2018-08-10T12:11:11.522Z,0.40
2018-08-10T12:13:42.028Z,0.60
2018-08-10T12:16:12.238Z,0.90
2018-08-10T12:18:42.887Z,0.40
2018-08-10T12:21:13.177Z,0.60
2018-08-10T12:23:43.291Z,0.70
2018-08-10T12:26:13.685Z,0.87
2018-08-10T12:28:43.816Z,0.60
2018-08-10T12:31:13.979Z,0.67
2018-08-10T12:33:44.229Z,0.77
2018-08-10T12:36:14.303Z,0.77
2018-08-10T12:38:45.209Z,0.97
2018-08-10T12:41:15.320Z,0.80
2018-08-10T12:43:45.869Z,0.50
2018-08-10T12:46:16.045Z,0.60
2018-08-10T12:48:46.262Z,0.43
2018-08-10T12:51:16.395Z,0.40
2018-08-10T12:53:46.603Z,0.50
2018-08-10T12:56:16.729Z,0.83
2018-08-10T12:58:46.907Z,0.80
2018-08-10T13:01:17.209Z,0.60
2018-08-10T13:03:47.979Z,0.40
2018-08-10T13:06:18.167Z,0.47
2018-08-10T13:08:48.363Z,0.57
2018-08-10T13:11:18.540Z,0.40
2018-08-10T13:13:48.795Z,0.37
2018-08-10T13:16:19.395Z,0.33
2018-08-10T13:18:50.165Z,0.50
2018-08-10T13:21:20.898Z,0.47
2018-08-10T13:23:51.164Z,0.53
2018-08-10T13:26:21.287Z,0.50
2018-08-10T13:28:51.393Z,0.40
2018-08-10T13:31:22.133Z,0.50
2018-08-10T13:33:52.307Z,0.60
2018-08-10T13:36:22.423Z,0.40
2018-08-10T13:38:52.597Z,0.57
2018-08-10T13:41:22.762Z,0.63
2018-08-10T13:43:52.911Z,0.60
2018-08-10T13:46:23.187Z,0.70
2018-08-10T13:48:53.364Z,0.50
2018-08-10T13:51:24.392Z,0.63
2018-08-10T13:53:54.450Z,0.60
2018-08-10T13:56:24.695Z,0.60
2018-08-10T13:58:54.949Z,0.60
2018-08-10T14:01:25.064Z,1.20
2018-08-10T14:03:55.222Z,1.20
2018-08-10T14:06:25.436Z,0.80
2018-08-10T14:08:55.530Z,1.30
2018-08-10T14:11:25.744Z,0.70
2018-08-10T14:13:55.971Z,0.87
2018-08-10T14:16:26.063Z,0.70
2018-08-10T14:18:56.118Z,0.70
2018-08-10T14:21:26.335Z,0.70
2018-08-10T14:23:56.531Z,1.07
2018-08-10T14:26:26.789Z,0.80
2018-08-10T14:28:57.114Z,0.77
2018-08-10T14:31:27.291Z,0.60
2018-08-10T14:33:57.637Z,0.40
2018-08-10T14:36:27.813Z,0.70
2018-08-10T14:38:58.187Z,0.70
2018-08-10T14:41:28.352Z,0.60
2018-08-10T14:43:58.517Z,0.63
2018-08-10T14:46:28.851Z,0.50
2018-08-10T14:48:58.972Z,0.60
2018-08-10T14:51:29.340Z,0.60
2018-08-10T14:53:59.534Z,0.50
2018-08-10T14:56:29.820Z,0.70
2018-08-10T14:59:00.430Z,0.73
2018-08-10T15:01:31.222Z,0.93
2018-08-10T15:04:01.480Z,0.93
2018-08-10T15:06:31.676Z,0.70
2018-08-10T15:09:02.912Z,0.80
2018-08-10T15:11:33.098Z,0.63
2018-08-10T15:14:03.267Z,0.60
2018-08-10T15:17:04.616Z,0.60
2018-08-10T15:19:34.903Z,0.80
2018-08-10T15:22:05.566Z,0.50
2018-08-10T15:24:35.884Z,0.30
2018-08-10T15:27:06.266Z,0.40
2018-08-10T15:29:36.487Z,0.60
2018-08-10T15:32:06.944Z,0.60
2018-08-10T15:34:37.089Z,0.40
2018-08-10T15:37:07.474Z,0.97
2018-08-10T15:39:37.694Z,0.53
2018-08-10T15:42:08.020Z,0.70
2018-08-10T15:44:38.167Z,0.70
2018-08-10T15:47:08.348Z,0.77
2018-08-10T15:49:39.142Z,0.70
2018-08-10T15:52:09.316Z,1.37
2018-08-10T15:54:39.548Z,1.00
2018-08-10T15:57:09.667Z,0.70
2018-08-10T15:59:39.912Z,0.60
2018-08-10T16:02:10.127Z,0.80
2018-08-10T16:04:40.814Z,0.70
2018-08-10T16:07:11.399Z,0.70
2018-08-10T16:09:41.669Z,0.50
2018-08-10T16:12:11.934Z,0.80
2018-08-10T16:14:42.731Z,0.90
2018-08-10T16:17:13.088Z,0.60
2018-08-10T16:19:46.164Z,0.70
2018-08-10T16:22:16.714Z,0.93
2018-08-10T16:24:47.284Z,0.60
2018-08-10T16:27:17.389Z,0.50
2018-08-10T16:29:47.550Z,0.40
2018-08-10T16:32:17.648Z,0.60
2018-08-10T16:34:48.329Z,0.57
2018-08-10T16:37:18.555Z,0.60
2018-08-10T16:39:49.787Z,0.40
2018-08-10T16:42:19.948Z,0.77
2018-08-10T16:44:50.770Z,0.70
2018-08-10T16:47:21.482Z,0.63
2018-08-10T16:52:33.578Z,0.50
2018-08-10T16:55:09.494Z,0.70
2018-08-10T16:57:40.064Z,0.90
2018-08-10T17:00:12.582Z,1.30
2018-08-10T17:02:43.342Z,1.00
2018-08-10T17:05:13.582Z,0.90
2018-08-10T17:07:44.124Z,0.80
2018-08-10T17:10:14.419Z,0.70
2018-08-10T17:12:45.722Z,0.60
2018-08-10T17:15:18.158Z,0.80
2018-08-10T17:17:48.908Z,0.47
2018-08-10T17:20:19.564Z,0.60
2018-08-10T17:22:50.124Z,0.70
2018-08-10T17:25:22.591Z,0.67
2018-08-10T17:27:52.761Z,0.97
2018-08-10T17:30:22.928Z,1.03
2018-08-10T17:32:53.919Z,0.90
2018-08-10T17:35:24.089Z,1.00
2018-08-10T17:37:54.342Z,0.70
2018-08-10T17:40:24.715Z,0.70
2018-08-10T17:42:54.887Z,0.73
2018-08-10T17:45:25.010Z,0.77
2018-08-10T17:47:55.208Z,1.13
2018-08-10T17:50:25.340Z,0.77
2018-08-10T17:52:55.431Z,0.60
2018-08-10T17:55:25.587Z,0.70
2018-08-10T17:57:55.699Z,0.60
2018-08-10T18:00:27.306Z,0.73
2018-08-10T18:02:57.489Z,0.80
2018-08-10T18:05:27.710Z,0.80
2018-08-10T18:07:57.770Z,0.70
2018-08-10T18:10:27.925Z,0.70
2018-08-10T18:12:58.118Z,0.87
2018-08-10T18:15:28.868Z,0.70
2018-08-10T18:17:59.006Z,0.80
2018-08-10T18:20:29.484Z,0.80
2018-08-10T18:22:59.775Z,0.80
2018-08-10T18:25:29.967Z,0.70
2018-08-10T18:28:00.088Z,0.60
2018-08-10T18:30:30.297Z,0.87
2018-08-10T18:33:00.515Z,0.53
2018-08-10T18:35:30.708Z,0.50
2018-08-10T18:38:01.315Z,1.20
2018-08-10T18:40:32.753Z,1.07
2018-08-10T18:43:02.767Z,1.30
2018-08-10T18:45:33.033Z,0.77
2018-08-10T18:48:03.242Z,0.90
2018-08-10T18:50:33.469Z,1.00
2018-08-10T18:53:03.562Z,0.90
2018-08-10T18:55:33.810Z,0.77
2018-08-10T18:58:03.983Z,0.77
2018-08-10T19:00:34.185Z,0.70
2018-08-10T19:03:04.877Z,0.73
2018-08-10T19:05:35.051Z,1.00
2018-08-10T19:08:05.495Z,1.00
2018-08-10T19:10:35.940Z,1.00
2018-08-10T19:13:06.186Z,0.47
2018-08-10T19:15:36.547Z,0.90
2018-08-10T19:18:08.553Z,1.17
2018-08-10T19:20:38.688Z,0.70
2018-08-10T19:23:08.895Z,0.73
2018-08-10T19:25:39.166Z,0.70
2018-08-10T19:28:09.286Z,0.77
2018-08-10T19:30:39.473Z,1.40
2018-08-10T19:33:09.632Z,1.03
2018-08-10T19:35:39.790Z,0.83
2018-08-10T19:38:09.971Z,0.70
2018-08-10T19:40:40.219Z,0.60
2018-08-10T19:43:10.290Z,0.77
2018-08-10T19:45:40.514Z,0.70
2018-08-10T19:48:10.758Z,0.80
2018-08-10T19:50:40.933Z,1.17
2018-08-10T19:53:11.105Z,1.00
2018-08-10T19:55:41.273Z,0.70
2018-08-10T19:58:11.496Z,0.60
2018-08-10T20:00:41.711Z,0.80
2018-08-10T20:03:12.765Z,0.73
2018-08-10T20:05:42.935Z,0.77
2018-08-10T20:08:13.070Z,0.90
2018-08-10T20:10:43.211Z,0.80
2018-08-10T20:13:13.441Z,0.73
2018-08-10T20:15:43.906Z,0.90
2018-08-10T20:18:14.119Z,0.70
2018-08-10T20:20:44.590Z,0.80
2018-08-10T20:23:14.835Z,0.70
2018-08-10T20:25:45.015Z,0.80
2018-08-10T20:28:15.154Z,0.80
2018-08-10T20:30:45.267Z,0.80
2018-08-10T20:33:15.384Z,0.80
2018-08-10T20:35:45.528Z,0.77
2018-08-10T20:38:15.727Z,0.77
2018-08-10T20:40:45.942Z,0.70
2018-08-10T20:43:16.120Z,0.73
2018-08-10T20:45:46.284Z,0.80
2018-08-10T20:48:16.443Z,0.83
2018-08-10T20:50:46.624Z,0.77
2018-08-10T20:53:16.871Z,0.70
2018-08-10T20:55:48.055Z,0.83
2018-08-10T20:58:18.058Z,0.60
2018-08-10T21:00:48.264Z,0.63
2018-08-10T21:03:18.455Z,1.00
2018-08-10T21:05:48.673Z,0.93
2018-08-10T21:08:19.789Z,0.87
2018-08-10T21:10:51.079Z,0.60
2018-08-10T21:13:21.187Z,0.70
2018-08-10T21:15:51.311Z,0.80
2018-08-10T21:18:21.450Z,0.70
2018-08-10T21:20:51.635Z,0.70
2018-08-10T21:23:21.741Z,0.80
2018-08-10T21:25:51.853Z,0.80
2018-08-10T21:28:21.977Z,0.77
2018-08-10T21:30:52.549Z,0.80
2018-08-10T21:33:22.621Z,0.77
2018-08-10T21:35:52.818Z,0.83
2018-08-10T21:38:23.039Z,0.83
2018-08-10T21:40:53.309Z,0.90
2018-08-10T21:43:23.406Z,1.00
2018-08-10T21:45:53.669Z,0.97
2018-08-10T21:48:24.661Z,1.00
2018-08-10T21:50:54.743Z,0.67
2018-08-10T21:53:24.971Z,0.87
2018-08-10T21:55:55.200Z,1.00
2018-08-10T21:58:25.308Z,1.00
2018-08-10T22:00:59.223Z,0.90
2018-08-10T22:03:29.348Z,1.00
2018-08-10T22:05:59.455Z,1.03
2018-08-10T22:08:29.595Z,1.20
2018-08-10T22:10:59.771Z,0.80
2018-08-10T22:13:35.109Z,1.03
2018-08-10T22:16:10.795Z,0.90
2018-08-10T22:18:46.778Z,1.00
2018-08-10T22:21:16.923Z,0.90
2018-08-10T22:23:47.003Z,1.00
2018-08-10T22:26:17.299Z,0.90
2018-08-10T22:28:47.427Z,1.00
2018-08-10T22:31:17.647Z,1.10
2018-08-10T22:33:47.834Z,0.90
2018-08-10T22:36:18.065Z,1.10
2018-08-10T22:38:48.276Z,1.30
2018-08-10T22:41:18.403Z,1.10
2018-08-10T22:43:48.535Z,1.30
2018-08-10T22:46:18.714Z,0.93
2018-08-10T22:48:48.735Z,1.20
2018-08-10T22:51:18.963Z,0.90
2018-08-10T22:53:49.230Z,1.20
2018-08-10T22:56:19.417Z,1.00
2018-08-10T22:58:49.577Z,0.90
2018-08-10T23:01:19.765Z,1.00
2018-08-10T23:03:50.782Z,1.20
2018-08-10T23:06:21.662Z,1.10
2018-08-10T23:08:52.428Z,1.10
2018-08-10T23:11:22.518Z,1.10
2018-08-10T23:13:52.716Z,1.03
2018-08-10T23:16:22.838Z,1.23
2018-08-10T23:18:53.216Z,1.20
2018-08-10T23:21:23.364Z,1.30
2018-08-10T23:23:54.109Z,1.27
2018-08-10T23:26:24.192Z,1.00
2018-08-10T23:28:54.340Z,1.30
2018-08-10T23:31:24.557Z,1.20
2018-08-10T23:33:54.701Z,1.03
2018-08-10T23:36:24.913Z,1.30
2018-08-10T23:38:55.120Z,1.43
2018-08-10T23:41:25.366Z,1.37
2018-08-10T23:43:55.588Z,1.20
2018-08-10T23:46:25.874Z,1.30
2018-08-10T23:48:56.612Z,1.47
2018-08-10T23:51:26.777Z,1.60
2018-08-10T23:53:56.889Z,1.37
2018-08-10T23:56:27.001Z,1.40
2018-08-10T23:58:57.290Z,1.50
